Ballardsville, Mississippi
Current Conditions -  °F | °C
As of 10:53 AM on Thursday 30 Oct 2014 (Local Time) from KTUP Reporting Station
Clear Clear  
Wind Chill: 59°   Ceiling: Unl
Heat Index: 59°   Visibility: 10mi
Dew Point: 44°   Wind: 3mph
Humidity: 58%   Direction: NA
Pressure: 30.16"   Gusts: NA
Location:  34.2235°N, 88.7398°W
Report Text: KTUP 301553Z VRB03KT 10SM CLR 15/07 A3016 RMK AO2 SLP212 T01500067
Loading
Personal Weather Stations






























Interactive Weather Map
Tropical Storm Tracking
New forecast layout! Learn more

10-Day Weather Forecast

Advertisements
Track Severe Weather on mobile